sensor_id;sensor_type;location;lat;lon;timestamp;temperature;humidity
1826;DHT22;912;48.130;11.348;2022-08-01T00:00:10;20.00;1.40
1826;DHT22;912;48.130;11.348;2022-08-01T00:02:52;20.10;1.40
1826;DHT22;912;48.130;11.348;2022-08-01T00:05:34;20.10;1.40
1826;DHT22;912;48.130;11.348;2022-08-01T00:08:18;20.00;1.40
1826;DHT22;912;48.130;11.348;2022-08-01T00:11:00;19.90;1.40
1826;DHT22;912;48.130;11.348;2022-08-01T00:13:42;19.80;1.40
1826;DHT22;912;48.130;11.348;2022-08-01T00:16:27;19.80;1.40
1826;DHT22;912;48.130;11.348;2022-08-01T00:19:10;19.80;1.40
1826;DHT22;912;48.130;11.348;2022-08-01T00:21:55;19.80;1.40
1826;DHT22;912;48.130;11.348;2022-08-01T00:24:37;19.80;1.40
1826;DHT22;912;48.130;11.348;2022-08-01T00:27:19;19.70;1.40
1826;DHT22;912;48.130;11.348;2022-08-01T00:30:00;19.70;1.40
1826;DHT22;912;48.130;11.348;2022-08-01T00:32:42;19.70;1.40
1826;DHT22;912;48.130;11.348;2022-08-01T00:35:50;19.60;1.40
1826;DHT22;912;48.130;11.348;2022-08-01T00:38:31;19.50;1.40
1826;DHT22;912;48.130;11.348;2022-08-01T00:41:13;19.60;1.40
1826;DHT22;912;48.130;11.348;2022-08-01T00:43:55;19.50;1.40
1826;DHT22;912;48.130;11.348;2022-08-01T00:46:37;19.50;1.40
1826;DHT22;912;48.130;11.348;2022-08-01T00:49:18;19.60;1.40
1826;DHT22;912;48.130;11.348;2022-08-01T00:52:00;19.50;1.40
1826;DHT22;912;48.130;11.348;2022-08-01T00:54:42;19.60;1.40
1826;DHT22;912;48.130;11.348;2022-08-01T00:57:24;19.40;1.40
1826;DHT22;912;48.130;11.348;2022-08-01T01:00:06;19.20;1.40
1826;DHT22;912;48.130;11.348;2022-08-01T01:02:48;19.10;1.40
1826;DHT22;912;48.130;11.348;2022-08-01T01:05:30;19.10;1.40
1826;DHT22;912;48.130;11.348;2022-08-01T01:08:13;19.00;1.40
1826;DHT22;912;48.130;11.348;2022-08-01T01:10:56;18.90;99.90
1826;DHT22;912;48.130;11.348;2022-08-01T01:13:46;18.60;1.40
1826;DHT22;912;48.130;11.348;2022-08-01T01:16:27;18.60;1.40
1826;DHT22;912;48.130;11.348;2022-08-01T01:19:10;18.50;1.40
1826;DHT22;912;48.130;11.348;2022-08-01T01:24:58;18.40;1.40
1826;DHT22;912;48.130;11.348;2022-08-01T01:30:16;18.30;1.40
1826;DHT22;912;48.130;11.348;2022-08-01T01:33:00;18.30;1.40
1826;DHT22;912;48.130;11.348;2022-08-01T01:35:51;18.20;1.40
1826;DHT22;912;48.130;11.348;2022-08-01T01:38:37;18.20;1.40
1826;DHT22;912;48.130;11.348;2022-08-01T01:41:18;18.30;1.40
1826;DHT22;912;48.130;11.348;2022-08-01T01:44:00;18.30;1.40
1826;DHT22;912;48.130;11.348;2022-08-01T01:46:44;18.40;1.40
1826;DHT22;912;48.130;11.348;2022-08-01T01:49:27;18.30;1.40
1826;DHT22;912;48.130;11.348;2022-08-01T01:52:08;18.40;1.40
1826;DHT22;912;48.130;11.348;2022-08-01T01:54:50;18.50;1.40
1826;DHT22;912;48.130;11.348;2022-08-01T01:57:31;18.60;1.40
1826;DHT22;912;48.130;11.348;2022-08-01T02:00:13;18.70;1.40
1826;DHT22;912;48.130;11.348;2022-08-01T02:02:55;18.80;1.40
1826;DHT22;912;48.130;11.348;2022-08-01T02:05:37;18.80;1.40
1826;DHT22;912;48.130;11.348;2022-08-01T02:08:18;18.70;1.40
1826;DHT22;912;48.130;11.348;2022-08-01T02:11:00;18.80;1.40
1826;DHT22;912;48.130;11.348;2022-08-01T02:13:53;18.80;1.40
1826;DHT22;912;48.130;11.348;2022-08-01T02:16:41;18.80;1.40
1826;DHT22;912;48.130;11.348;2022-08-01T02:19:22;18.60;1.40
1826;DHT22;912;48.130;11.348;2022-08-01T02:22:06;18.40;1.40
1826;DHT22;912;48.130;11.348;2022-08-01T02:24:51;18.20;1.40
1826;DHT22;912;48.130;11.348;2022-08-01T02:27:36;18.20;1.40
1826;DHT22;912;48.130;11.348;2022-08-01T02:30:15;18.10;1.40
1826;DHT22;912;48.130;11.348;2022-08-01T02:32:59;18.00;1.40
1826;DHT22;912;48.130;11.348;2022-08-01T02:35:50;17.90;1.40
1826;DHT22;912;48.130;11.348;2022-08-01T02:38:32;17.90;1.40
1826;DHT22;912;48.130;11.348;2022-08-01T02:41:19;17.70;1.40
1826;DHT22;912;48.130;11.348;2022-08-01T02:43:56;17.80;1.40
1826;DHT22;912;48.130;11.348;2022-08-01T02:46:37;17.70;1.40
1826;DHT22;912;48.130;11.348;2022-08-01T02:49:18;17.50;1.40
1826;DHT22;912;48.130;11.348;2022-08-01T02:52:04;17.50;1.40
1826;DHT22;912;48.130;11.348;2022-08-01T02:54:45;17.60;1.40
1826;DHT22;912;48.130;11.348;2022-08-01T02:57:27;17.80;1.40
1826;DHT22;912;48.130;11.348;2022-08-01T03:00:10;17.90;1.40
1826;DHT22;912;48.130;11.348;2022-08-01T03:02:52;18.00;1.40
1826;DHT22;912;48.130;11.348;2022-08-01T03:05:34;17.90;1.40
1826;DHT22;912;48.130;11.348;2022-08-01T03:08:15;17.90;1.40
1826;DHT22;912;48.130;11.348;2022-08-01T03:10:57;18.00;1.40
1826;DHT22;912;48.130;11.348;2022-08-01T03:13:39;17.90;1.40
1826;DHT22;912;48.130;11.348;2022-08-01T03:16:21;17.90;1.40
1826;DHT22;912;48.130;11.348;2022-08-01T03:19:06;18.10;1.40
1826;DHT22;912;48.130;11.348;2022-08-01T03:21:47;18.20;1.40
1826;DHT22;912;48.130;11.348;2022-08-01T03:24:32;18.10;1.40
1826;DHT22;912;48.130;11.348;2022-08-01T03:27:14;18.00;1.40
1826;DHT22;912;48.130;11.348;2022-08-01T03:29:55;17.90;1.40
1826;DHT22;912;48.130;11.348;2022-08-01T03:32:37;17.80;1.40
1826;DHT22;912;48.130;11.348;2022-08-01T03:35:53;17.80;1.40
1826;DHT22;912;48.130;11.348;2022-08-01T03:38:35;17.80;1.40
1826;DHT22;912;48.130;11.348;2022-08-01T03:41:18;17.90;1.40
1826;DHT22;912;48.130;11.348;2022-08-01T03:44:03;17.80;1.40
1826;DHT22;912;48.130;11.348;2022-08-01T03:46:44;17.80;1.40
1826;DHT22;912;48.130;11.348;2022-08-01T03:49:30;17.70;1.40
1826;DHT22;912;48.130;11.348;2022-08-01T03:52:11;17.70;1.40
1826;DHT22;912;48.130;11.348;2022-08-01T03:54:56;17.70;1.40
1826;DHT22;912;48.130;11.348;2022-08-01T03:57:38;17.80;1.40
1826;DHT22;912;48.130;11.348;2022-08-01T04:00:22;17.90;1.40
1826;DHT22;912;48.130;11.348;2022-08-01T04:03:04;18.00;1.40
1826;DHT22;912;48.130;11.348;2022-08-01T04:05:46;17.90;1.40
1826;DHT22;912;48.130;11.348;2022-08-01T04:08:36;17.90;1.40
1826;DHT22;912;48.130;11.348;2022-08-01T04:13:52;17.90;1.40
1826;DHT22;912;48.130;11.348;2022-08-01T04:16:34;17.80;1.40
1826;DHT22;912;48.130;11.348;2022-08-01T04:19:19;17.70;1.40
1826;DHT22;912;48.130;11.348;2022-08-01T04:22:01;17.80;1.40
1826;DHT22;912;48.130;11.348;2022-08-01T04:24:46;17.90;1.40
1826;DHT22;912;48.130;11.348;2022-08-01T04:27:28;18.00;1.40
1826;DHT22;912;48.130;11.348;2022-08-01T04:30:10;17.80;1.40
1826;DHT22;912;48.130;11.348;2022-08-01T04:32:52;17.80;1.40
1826;DHT22;912;48.130;11.348;2022-08-01T04:35:50;18.00;1.40
1826;DHT22;912;48.130;11.348;2022-08-01T04:38:33;18.00;1.40
1826;DHT22;912;48.130;11.348;2022-08-01T04:41:13;17.90;1.40
1826;DHT22;912;48.130;11.348;2022-08-01T04:43:55;17.90;1.40
1826;DHT22;912;48.130;11.348;2022-08-01T04:46:37;17.90;1.40
1826;DHT22;912;48.130;11.348;2022-08-01T04:49:18;17.90;99.90
1826;DHT22;912;48.130;11.348;2022-08-01T04:52:03;17.80;1.40
1826;DHT22;912;48.130;11.348;2022-08-01T04:54:48;17.80;1.40
1826;DHT22;912;48.130;11.348;2022-08-01T05:00:12;18.00;1.40
1826;DHT22;912;48.130;11.348;2022-08-01T05:02:54;18.00;1.40
1826;DHT22;912;48.130;11.348;2022-08-01T05:05:36;18.10;1.40
1826;DHT22;912;48.130;11.348;2022-08-01T05:08:18;18.30;1.40
1826;DHT22;912;48.130;11.348;2022-08-01T05:11:04;18.50;1.40
1826;DHT22;912;48.130;11.348;2022-08-01T05:16:20;18.70;1.40
1826;DHT22;912;48.130;11.348;2022-08-01T05:19:02;18.80;1.40
1826;DHT22;912;48.130;11.348;2022-08-01T05:21:44;19.00;1.40
1826;DHT22;912;48.130;11.348;2022-08-01T05:24:27;19.10;1.40
1826;DHT22;912;48.130;11.348;2022-08-01T05:27:08;19.20;1.40
1826;DHT22;912;48.130;11.348;2022-08-01T05:29:50;19.30;1.40
1826;DHT22;912;48.130;11.348;2022-08-01T05:32:35;19.30;1.40
1826;DHT22;912;48.130;11.348;2022-08-01T05:35:51;19.30;1.40
1826;DHT22;912;48.130;11.348;2022-08-01T05:38:32;19.40;1.40
1826;DHT22;912;48.130;11.348;2022-08-01T05:41:14;19.40;1.40
1826;DHT22;912;48.130;11.348;2022-08-01T05:43:56;19.30;1.40
1826;DHT22;912;48.130;11.348;2022-08-01T05:46:38;19.30;1.40
1826;DHT22;912;48.130;11.348;2022-08-01T05:49:19;19.30;1.40
1826;DHT22;912;48.130;11.348;2022-08-01T05:52:01;19.30;1.40
1826;DHT22;912;48.130;11.348;2022-08-01T05:54:46;19.10;1.40
1826;DHT22;912;48.130;11.348;2022-08-01T05:57:28;19.00;1.40
1826;DHT22;912;48.130;11.348;2022-08-01T06:00:13;19.10;1.40
1826;DHT22;912;48.130;11.348;2022-08-01T06:02:55;19.30;1.40
1826;DHT22;912;48.130;11.348;2022-08-01T06:05:37;19.40;1.40
1826;DHT22;912;48.130;11.348;2022-08-01T06:08:18;19.60;1.40
1826;DHT22;912;48.130;11.348;2022-08-01T06:11:00;19.70;1.40
1826;DHT22;912;48.130;11.348;2022-08-01T06:13:42;19.80;1.40
1826;DHT22;912;48.130;11.348;2022-08-01T06:16:24;19.90;1.40
1826;DHT22;912;48.130;11.348;2022-08-01T06:19:10;20.10;1.40
1826;DHT22;912;48.130;11.348;2022-08-01T06:21:53;20.20;1.40
1826;DHT22;912;48.130;11.348;2022-08-01T06:24:34;20.20;1.40
1826;DHT22;912;48.130;11.348;2022-08-01T06:27:19;20.20;1.40
1826;DHT22;912;48.130;11.348;2022-08-01T06:30:02;20.40;1.40
1826;DHT22;912;48.130;11.348;2022-08-01T06:32:46;20.60;1.40
1826;DHT22;912;48.130;11.348;2022-08-01T06:35:50;20.60;1.40
1826;DHT22;912;48.130;11.348;2022-08-01T06:38:32;20.70;1.40
1826;DHT22;912;48.130;11.348;2022-08-01T06:41:14;20.70;1.40
1826;DHT22;912;48.130;11.348;2022-08-01T06:43:56;20.80;1.40
1826;DHT22;912;48.130;11.348;2022-08-01T06:46:39;20.90;1.40
1826;DHT22;912;48.130;11.348;2022-08-01T06:49:21;21.00;1.40
1826;DHT22;912;48.130;11.348;2022-08-01T06:52:04;21.10;1.40
1826;DHT22;912;48.130;11.348;2022-08-01T06:54:45;21.20;1.40
1826;DHT22;912;48.130;11.348;2022-08-01T06:57:27;21.20;99.90
1826;DHT22;912;48.130;11.348;2022-08-01T07:00:10;21.30;1.40
1826;DHT22;912;48.130;11.348;2022-08-01T07:05:27;21.50;1.40
1826;DHT22;912;48.130;11.348;2022-08-01T07:08:09;21.30;1.40
1826;DHT22;912;48.130;11.348;2022-08-01T07:10:51;21.40;1.40
1826;DHT22;912;48.130;11.348;2022-08-01T07:13:33;21.40;1.40
1826;DHT22;912;48.130;11.348;2022-08-01T07:16:18;21.40;1.40
1826;DHT22;912;48.130;11.348;2022-08-01T07:18:59;21.60;1.40
1826;DHT22;912;48.130;11.348;2022-08-01T07:21:41;21.70;1.40
1826;DHT22;912;48.130;11.348;2022-08-01T07:24:23;21.50;1.40
1826;DHT22;912;48.130;11.348;2022-08-01T07:27:05;21.60;1.40
1826;DHT22;912;48.130;11.348;2022-08-01T07:29:48;21.80;1.40
1826;DHT22;912;48.130;11.348;2022-08-01T07:32:30;21.90;1.40
1826;DHT22;912;48.130;11.348;2022-08-01T07:35:54;22.00;1.40
1826;DHT22;912;48.130;11.348;2022-08-01T07:38:35;22.00;1.40
1826;DHT22;912;48.130;11.348;2022-08-01T07:41:17;22.00;1.40
1826;DHT22;912;48.130;11.348;2022-08-01T07:43:59;22.00;1.40
1826;DHT22;912;48.130;11.348;2022-08-01T07:46:44;22.10;1.40
1826;DHT22;912;48.130;11.348;2022-08-01T07:49:26;22.20;1.40
1826;DHT22;912;48.130;11.348;2022-08-01T07:52:10;22.20;1.40
1826;DHT22;912;48.130;11.348;2022-08-01T07:54:53;22.30;1.40
1826;DHT22;912;48.130;11.348;2022-08-01T07:57:38;22.60;1.40
1826;DHT22;912;48.130;11.348;2022-08-01T08:02:55;22.40;1.40
1826;DHT22;912;48.130;11.348;2022-08-01T08:05:39;22.50;1.40
1826;DHT22;912;48.130;11.348;2022-08-01T08:08:21;22.60;1.40
1826;DHT22;912;48.130;11.348;2022-08-01T08:11:06;22.80;1.40
1826;DHT22;912;48.130;11.348;2022-08-01T08:13:49;22.80;1.40
1826;DHT22;912;48.130;11.348;2022-08-01T08:16:30;22.90;1.40
1826;DHT22;912;48.130;11.348;2022-08-01T08:19:12;22.90;1.40
1826;DHT22;912;48.130;11.348;2022-08-01T08:21:54;23.00;1.40
1826;DHT22;912;48.130;11.348;2022-08-01T08:24:37;22.90;1.40
1826;DHT22;912;48.130;11.348;2022-08-01T08:27:19;23.10;1.40
1826;DHT22;912;48.130;11.348;2022-08-01T08:30:00;23.10;1.40
1826;DHT22;912;48.130;11.348;2022-08-01T08:32:42;23.30;1.40
1826;DHT22;912;48.130;11.348;2022-08-01T08:35:53;23.60;1.40
1826;DHT22;912;48.130;11.348;2022-08-01T08:41:09;23.50;1.40
1826;DHT22;912;48.130;11.348;2022-08-01T08:43:51;23.70;1.40
1826;DHT22;912;48.130;11.348;2022-08-01T08:46:40;24.00;1.40
1826;DHT22;912;48.130;11.348;2022-08-01T08:49:23;23.90;1.40
1826;DHT22;912;48.130;11.348;2022-08-01T08:52:03;23.80;1.40
1826;DHT22;912;48.130;11.348;2022-08-01T08:54:45;23.80;1.40
1826;DHT22;912;48.130;11.348;2022-08-01T08:57:27;23.90;1.40
1826;DHT22;912;48.130;11.348;2022-08-01T09:00:09;24.10;1.40
1826;DHT22;912;48.130;11.348;2022-08-01T09:02:52;24.20;1.40
1826;DHT22;912;48.130;11.348;2022-08-01T09:05:34;24.40;1.40
1826;DHT22;912;48.130;11.348;2022-08-01T09:08:15;24.70;1.40
1826;DHT22;912;48.130;11.348;2022-08-01T09:10:57;24.60;1.40
1826;DHT22;912;48.130;11.348;2022-08-01T09:13:47;24.80;1.40
1826;DHT22;912;48.130;11.348;2022-08-01T09:16:24;25.00;1.40
1826;DHT22;912;48.130;11.348;2022-08-01T09:19:09;25.00;1.40
1826;DHT22;912;48.130;11.348;2022-08-01T09:21:57;25.00;1.40
1826;DHT22;912;48.130;11.348;2022-08-01T09:24:38;27.10;1.40
1826;DHT22;912;48.130;11.348;2022-08-01T09:27:22;29.10;1.40
1826;DHT22;912;48.130;11.348;2022-08-01T09:30:09;30.30;1.40
1826;DHT22;912;48.130;11.348;2022-08-01T09:32:56;29.40;1.40
1826;DHT22;912;48.130;11.348;2022-08-01T09:35:56;29.70;1.40
1826;DHT22;912;48.130;11.348;2022-08-01T09:38:37;28.60;99.90
1826;DHT22;912;48.130;11.348;2022-08-01T09:41:28;29.40;99.90
1826;DHT22;912;48.130;11.348;2022-08-01T09:44:09;29.60;99.90
1826;DHT22;912;48.130;11.348;2022-08-01T09:49:32;30.80;99.90
1826;DHT22;912;48.130;11.348;2022-08-01T09:52:15;30.70;99.90
1826;DHT22;912;48.130;11.348;2022-08-01T09:54:57;31.40;99.90
1826;DHT22;912;48.130;11.348;2022-08-01T09:57:38;31.30;99.90
1826;DHT22;912;48.130;11.348;2022-08-01T10:00:19;30.70;99.90
1826;DHT22;912;48.130;11.348;2022-08-01T10:03:20;31.90;99.90
1826;DHT22;912;48.130;11.348;2022-08-01T10:06:11;32.00;99.90
1826;DHT22;912;48.130;11.348;2022-08-01T10:08:46;32.20;99.90
1826;DHT22;912;48.130;11.348;2022-08-01T10:11:27;32.20;99.90
1826;DHT22;912;48.130;11.348;2022-08-01T10:14:12;33.60;99.90
1826;DHT22;912;48.130;11.348;2022-08-01T10:16:55;29.80;99.90
1826;DHT22;912;48.130;11.348;2022-08-01T10:19:37;31.10;99.90
1826;DHT22;912;48.130;11.348;2022-08-01T10:22:19;31.70;99.90
1826;DHT22;912;48.130;11.348;2022-08-01T10:25:02;32.60;99.90
1826;DHT22;912;48.130;11.348;2022-08-01T10:27:42;30.90;99.90
1826;DHT22;912;48.130;11.348;2022-08-01T10:30:24;31.40;99.90
1826;DHT22;912;48.130;11.348;2022-08-01T10:35:53;29.20;99.90
1826;DHT22;912;48.130;11.348;2022-08-01T10:38:35;29.70;1.40
1826;DHT22;912;48.130;11.348;2022-08-01T10:41:21;32.10;99.90
1826;DHT22;912;48.130;11.348;2022-08-01T10:44:03;34.40;99.90
1826;DHT22;912;48.130;11.348;2022-08-01T10:46:46;34.50;99.90
1826;DHT22;912;48.130;11.348;2022-08-01T10:52:01;30.20;99.90
1826;DHT22;912;48.130;11.348;2022-08-01T10:54:43;28.90;99.90
1826;DHT22;912;48.130;11.348;2022-08-01T10:57:24;29.50;99.90
1826;DHT22;912;48.130;11.348;2022-08-01T11:00:06;31.20;99.90
1826;DHT22;912;48.130;11.348;2022-08-01T11:02:58;30.80;99.90
1826;DHT22;912;48.130;11.348;2022-08-01T11:05:39;32.20;99.90
1826;DHT22;912;48.130;11.348;2022-08-01T11:08:21;27.60;99.90
1826;DHT22;912;48.130;11.348;2022-08-01T11:11:03;27.60;99.90
1826;DHT22;912;48.130;11.348;2022-08-01T11:14:01;30.00;99.90
1826;DHT22;912;48.130;11.348;2022-08-01T11:16:42;31.80;99.90
1826;DHT22;912;48.130;11.348;2022-08-01T11:19:24;29.90;99.90
1826;DHT22;912;48.130;11.348;2022-08-01T11:22:05;31.70;99.90
1826;DHT22;912;48.130;11.348;2022-08-01T11:27:30;32.20;99.90
1826;DHT22;912;48.130;11.348;2022-08-01T11:30:26;32.60;99.90
1826;DHT22;912;48.130;11.348;2022-08-01T11:38:33;31.80;99.90
1826;DHT22;912;48.130;11.348;2022-08-01T11:41:22;31.70;99.90
1826;DHT22;912;48.130;11.348;2022-08-01T11:44:05;32.50;99.90
1826;DHT22;912;48.130;11.348;2022-08-01T11:46:48;31.10;99.90
1826;DHT22;912;48.130;11.348;2022-08-01T11:49:46;32.00;99.90
1826;DHT22;912;48.130;11.348;2022-08-01T11:52:30;32.70;99.90
1826;DHT22;912;48.130;11.348;2022-08-01T11:55:11;32.20;99.90
1826;DHT22;912;48.130;11.348;2022-08-01T11:58:00;32.90;99.90
1826;DHT22;912;48.130;11.348;2022-08-01T12:00:49;33.00;99.90
1826;DHT22;912;48.130;11.348;2022-08-01T12:03:28;31.30;1.40
1826;DHT22;912;48.130;11.348;2022-08-01T12:06:08;32.60;99.90
1826;DHT22;912;48.130;11.348;2022-08-01T12:08:51;32.50;99.90
1826;DHT22;912;48.130;11.348;2022-08-01T12:11:33;32.00;99.90
1826;DHT22;912;48.130;11.348;2022-08-01T12:14:17;30.50;99.90
1826;DHT22;912;48.130;11.348;2022-08-01T12:17:00;30.80;1.40
1826;DHT22;912;48.130;11.348;2022-08-01T12:19:42;32.50;99.90
1826;DHT22;912;48.130;11.348;2022-08-01T12:25:04;31.20;99.90
1826;DHT22;912;48.130;11.348;2022-08-01T12:27:50;30.40;99.90
1826;DHT22;912;48.130;11.348;2022-08-01T12:30:31;31.10;99.90
1826;DHT22;912;48.130;11.348;2022-08-01T12:35:51;32.20;99.90
1826;DHT22;912;48.130;11.348;2022-08-01T12:38:32;33.40;99.90
1826;DHT22;912;48.130;11.348;2022-08-01T12:41:14;33.30;1.40
1826;DHT22;912;48.130;11.348;2022-08-01T12:43:56;33.30;99.90
1826;DHT22;912;48.130;11.348;2022-08-01T12:46:38;31.40;99.90
1826;DHT22;912;48.130;11.348;2022-08-01T12:49:19;31.70;99.90
1826;DHT22;912;48.130;11.348;2022-08-01T12:52:01;32.50;99.90
1826;DHT22;912;48.130;11.348;2022-08-01T12:57:48;31.40;99.90
1826;DHT22;912;48.130;11.348;2022-08-01T13:00:30;29.20;99.90
1826;DHT22;912;48.130;11.348;2022-08-01T13:03:14;28.10;1.40
1826;DHT22;912;48.130;11.348;2022-08-01T13:05:57;28.30;1.40
1826;DHT22;912;48.130;11.348;2022-08-01T13:08:40;28.40;99.90
1826;DHT22;912;48.130;11.348;2022-08-01T13:11:25;29.30;99.90
1826;DHT22;912;48.130;11.348;2022-08-01T13:14:06;29.00;1.40
1826;DHT22;912;48.130;11.348;2022-08-01T13:16:48;28.10;99.90
1826;DHT22;912;48.130;11.348;2022-08-01T13:19:41;27.50;99.90
1826;DHT22;912;48.130;11.348;2022-08-01T13:22:31;27.20;99.90
1826;DHT22;912;48.130;11.348;2022-08-01T13:25:12;27.40;99.90
1826;DHT22;912;48.130;11.348;2022-08-01T13:27:48;27.50;99.90
1826;DHT22;912;48.130;11.348;2022-08-01T13:30:30;27.80;99.90
1826;DHT22;912;48.130;11.348;2022-08-01T13:35:50;27.30;99.90
1826;DHT22;912;48.130;11.348;2022-08-01T13:38:31;26.80;99.90
1826;DHT22;912;48.130;11.348;2022-08-01T13:41:08;26.30;99.90
1826;DHT22;912;48.130;11.348;2022-08-01T13:43:50;26.50;99.90
1826;DHT22;912;48.130;11.348;2022-08-01T13:46:31;26.40;99.90
1826;DHT22;912;48.130;11.348;2022-08-01T13:49:13;26.10;1.40
1826;DHT22;912;48.130;11.348;2022-08-01T13:51:55;24.90;99.90
1826;DHT22;912;48.130;11.348;2022-08-01T13:54:40;23.50;1.40
1826;DHT22;912;48.130;11.348;2022-08-01T13:57:21;23.00;1.40
1826;DHT22;912;48.130;11.348;2022-08-01T14:00:04;22.80;1.40
1826;DHT22;912;48.130;11.348;2022-08-01T14:02:47;22.50;1.40
1826;DHT22;912;48.130;11.348;2022-08-01T14:05:29;22.90;1.40
1826;DHT22;912;48.130;11.348;2022-08-01T14:08:10;23.30;1.40
1826;DHT22;912;48.130;11.348;2022-08-01T14:10:52;24.00;1.40
1826;DHT22;912;48.130;11.348;2022-08-01T14:13:34;24.30;1.40
1826;DHT22;912;48.130;11.348;2022-08-01T14:16:16;24.40;1.40
1826;DHT22;912;48.130;11.348;2022-08-01T14:18:58;24.30;1.40
1826;DHT22;912;48.130;11.348;2022-08-01T14:21:40;24.20;1.40
1826;DHT22;912;48.130;11.348;2022-08-01T14:24:22;24.00;1.40
1826;DHT22;912;48.130;11.348;2022-08-01T14:27:04;23.80;1.40
1826;DHT22;912;48.130;11.348;2022-08-01T14:29:48;23.80;1.40
1826;DHT22;912;48.130;11.348;2022-08-01T14:32:31;23.70;1.40
1826;DHT22;912;48.130;11.348;2022-08-01T14:35:50;23.40;1.40
1826;DHT22;912;48.130;11.348;2022-08-01T14:38:31;23.20;1.40
1826;DHT22;912;48.130;11.348;2022-08-01T14:41:14;23.20;1.40
1826;DHT22;912;48.130;11.348;2022-08-01T14:43:59;23.00;1.40
1826;DHT22;912;48.130;11.348;2022-08-01T14:46:40;22.90;1.40
1826;DHT22;912;48.130;11.348;2022-08-01T14:49:23;22.70;1.40
1826;DHT22;912;48.130;11.348;2022-08-01T14:52:05;22.60;1.40
1826;DHT22;912;48.130;11.348;2022-08-01T14:54:47;22.70;1.40
1826;DHT22;912;48.130;11.348;2022-08-01T14:57:30;22.70;1.40
1826;DHT22;912;48.130;11.348;2022-08-01T15:00:12;22.70;1.40
1826;DHT22;912;48.130;11.348;2022-08-01T15:02:54;22.70;1.40
1826;DHT22;912;48.130;11.348;2022-08-01T15:05:39;22.60;1.40
1826;DHT22;912;48.130;11.348;2022-08-01T15:08:22;22.40;1.40
1826;DHT22;912;48.130;11.348;2022-08-01T15:11:03;22.20;1.40
1826;DHT22;912;48.130;11.348;2022-08-01T15:13:45;22.00;1.40
1826;DHT22;912;48.130;11.348;2022-08-01T15:16:27;22.00;1.40
1826;DHT22;912;48.130;11.348;2022-08-01T15:19:12;22.00;1.40
1826;DHT22;912;48.130;11.348;2022-08-01T15:21:54;21.90;1.40
1826;DHT22;912;48.130;11.348;2022-08-01T15:24:40;21.70;1.40
1826;DHT22;912;48.130;11.348;2022-08-01T15:27:22;21.70;1.40
1826;DHT22;912;48.130;11.348;2022-08-01T15:30:04;21.60;1.40
1826;DHT22;912;48.130;11.348;2022-08-01T15:32:50;21.50;1.40
1826;DHT22;912;48.130;11.348;2022-08-01T15:35:51;21.40;1.40
1826;DHT22;912;48.130;11.348;2022-08-01T15:38:37;21.30;1.40
1826;DHT22;912;48.130;11.348;2022-08-01T15:41:13;21.30;1.40
1826;DHT22;912;48.130;11.348;2022-08-01T15:43:57;21.10;1.40
1826;DHT22;912;48.130;11.348;2022-08-01T15:46:39;21.10;1.40
1826;DHT22;912;48.130;11.348;2022-08-01T15:49:21;21.00;1.40
1826;DHT22;912;48.130;11.348;2022-08-01T15:52:04;21.00;1.40
1826;DHT22;912;48.130;11.348;2022-08-01T15:54:47;20.90;1.40
1826;DHT22;912;48.130;11.348;2022-08-01T15:57:28;20.90;1.40
1826;DHT22;912;48.130;11.348;2022-08-01T16:00:11;20.80;1.40
1826;DHT22;912;48.130;11.348;2022-08-01T16:02:53;20.80;1.40
1826;DHT22;912;48.130;11.348;2022-08-01T16:05:34;20.80;1.40
1826;DHT22;912;48.130;11.348;2022-08-01T16:08:19;20.70;1.40
1826;DHT22;912;48.130;11.348;2022-08-01T16:13:35;20.70;1.40
1826;DHT22;912;48.130;11.348;2022-08-01T16:16:17;20.40;1.40
1826;DHT22;912;48.130;11.348;2022-08-01T16:18:59;20.30;1.40
1826;DHT22;912;48.130;11.348;2022-08-01T16:22:30;20.30;1.40
1826;DHT22;912;48.130;11.348;2022-08-01T16:25:11;20.20;1.40
1826;DHT22;912;48.130;11.348;2022-08-01T16:27:53;20.10;1.40
1826;DHT22;912;48.130;11.348;2022-08-01T16:30:35;19.90;1.40
1826;DHT22;912;48.130;11.348;2022-08-01T16:35:50;19.80;1.40
1826;DHT22;912;48.130;11.348;2022-08-01T16:38:31;19.80;1.40
1826;DHT22;912;48.130;11.348;2022-08-01T16:41:14;19.70;1.40
1826;DHT22;912;48.130;11.348;2022-08-01T16:43:55;19.70;1.40
1826;DHT22;912;48.130;11.348;2022-08-01T16:46:37;19.80;1.40
1826;DHT22;912;48.130;11.348;2022-08-01T16:49:24;20.00;1.40
1826;DHT22;912;48.130;11.348;2022-08-01T16:52:06;20.00;1.40
1826;DHT22;912;48.130;11.348;2022-08-01T16:54:48;20.30;1.40
1826;DHT22;912;48.130;11.348;2022-08-01T16:57:30;20.70;1.40
1826;DHT22;912;48.130;11.348;2022-08-01T17:00:13;20.90;1.40
1826;DHT22;912;48.130;11.348;2022-08-01T17:02:55;20.90;1.40
1826;DHT22;912;48.130;11.348;2022-08-01T17:05:37;20.90;1.40
1826;DHT22;912;48.130;11.348;2022-08-01T17:08:23;21.00;1.40
1826;DHT22;912;48.130;11.348;2022-08-01T17:11:04;20.70;1.40
1826;DHT22;912;48.130;11.348;2022-08-01T17:13:49;20.60;1.40
1826;DHT22;912;48.130;11.348;2022-08-01T17:16:31;20.60;1.40
1826;DHT22;912;48.130;11.348;2022-08-01T17:21:50;20.60;1.40
1826;DHT22;912;48.130;11.348;2022-08-01T17:24:32;20.60;1.40
1826;DHT22;912;48.130;11.348;2022-08-01T17:27:13;20.40;1.40
1826;DHT22;912;48.130;11.348;2022-08-01T17:29:58;20.40;1.40
1826;DHT22;912;48.130;11.348;2022-08-01T17:32:40;20.30;1.40
1826;DHT22;912;48.130;11.348;2022-08-01T17:36:08;20.20;1.40
1826;DHT22;912;48.130;11.348;2022-08-01T17:38:50;20.00;1.40
1826;DHT22;912;48.130;11.348;2022-08-01T17:41:31;19.90;1.40
1826;DHT22;912;48.130;11.348;2022-08-01T17:44:13;19.90;1.40
1826;DHT22;912;48.130;11.348;2022-08-01T17:46:55;19.80;1.40
1826;DHT22;912;48.130;11.348;2022-08-01T17:49:37;19.80;1.40
1826;DHT22;912;48.130;11.348;2022-08-01T17:52:19;19.80;1.40
1826;DHT22;912;48.130;11.348;2022-08-01T17:55:05;19.70;1.40
1826;DHT22;912;48.130;11.348;2022-08-01T17:57:46;19.70;1.40
1826;DHT22;912;48.130;11.348;2022-08-01T18:00:28;19.70;1.40
1826;DHT22;912;48.130;11.348;2022-08-01T18:03:09;19.80;1.40
1826;DHT22;912;48.130;11.348;2022-08-01T18:05:52;19.80;1.40
1826;DHT22;912;48.130;11.348;2022-08-01T18:08:33;19.80;1.40
1826;DHT22;912;48.130;11.348;2022-08-01T18:11:15;19.80;1.40
1826;DHT22;912;48.130;11.348;2022-08-01T18:13:57;19.80;1.40
1826;DHT22;912;48.130;11.348;2022-08-01T18:16:39;19.90;1.40
1826;DHT22;912;48.130;11.348;2022-08-01T18:19:20;19.90;1.40
1826;DHT22;912;48.130;11.348;2022-08-01T18:22:02;19.90;1.40
1826;DHT22;912;48.130;11.348;2022-08-01T18:24:44;19.90;1.40
1826;DHT22;912;48.130;11.348;2022-08-01T18:27:26;19.80;1.40
1826;DHT22;912;48.130;11.348;2022-08-01T18:30:11;19.60;1.40
1826;DHT22;912;48.130;11.348;2022-08-01T18:32:52;19.60;1.40
1826;DHT22;912;48.130;11.348;2022-08-01T18:38:24;19.70;1.40
1826;DHT22;912;48.130;11.348;2022-08-01T18:41:06;19.50;1.40
1826;DHT22;912;48.130;11.348;2022-08-01T18:43:47;19.40;1.40
1826;DHT22;912;48.130;11.348;2022-08-01T18:46:29;19.40;1.40
1826;DHT22;912;48.130;11.348;2022-08-01T18:49:11;19.40;1.40
1826;DHT22;912;48.130;11.348;2022-08-01T18:51:53;19.30;1.40
1826;DHT22;912;48.130;11.348;2022-08-01T18:54:35;19.30;1.40
1826;DHT22;912;48.130;11.348;2022-08-01T18:57:16;19.30;1.40
1826;DHT22;912;48.130;11.348;2022-08-01T18:59:58;19.30;1.40